Ballardsville, Mississippi
Current Conditions -  °F | °C
As of 2:53 PM on Tuesday 25 Nov 2014 (Local Time) from KTUP Reporting Station
Clear Clear  
Wind Chill: 50°   Ceiling: Unl
Heat Index: 50°   Visibility: 10mi
Dew Point: 28°   Wind: 6mph
Humidity: 43%   Direction: 330°NNW
Pressure: 30.14"   Gusts: NA
Location:  34.2235°N, 88.7398°W
Report Text: KTUP 252053Z 33005KT 10SM CLR 10/M02 A3014 RMK AO2 SLP206 T01001022 55018
Loading
Personal Weather Stations






























Interactive Weather Map New forecast layout! Learn more

10-Day Weather Forecast

Advertisements
Track Severe Weather on mobile